Terminal Aerodrome Forecast
Issued by NWS

Home | Current Version | Previous Version | Text Only | Print | Product List | Glossary On
Versions: 1 2 3 4 5 6 7 8 9 10 11 12 13 14 15 16 17 18 19 20 21
543
FTUS41 KPBZ 270148 AAA
TAFLBE
TAF AMD
KLBE 270148Z 2702/2724 16009KT P6SM BKN070
      TEMPO 2702/2703 4SM -RA BKN035
     FM270600 17006KT P6SM VCSH OVC035
     FM271100 22007KT P6SM OVC025
     FM271500 24009KT P6SM BKN040
     FM272300 24004KT P6SM BKN120=

USA.gov is the U.S. government's official web portal to all federal, state and local government web resources and services.